createdAt,value
2018-12-16T00:01:31.603Z,12.15
2018-12-16T00:03:59.436Z,29.27
2018-12-16T00:06:27.964Z,13.65
2018-12-16T00:08:55.867Z,23.60
2018-12-16T00:11:23.686Z,24.43
2018-12-16T00:13:51.740Z,24.52
2018-12-16T00:16:19.854Z,14.13
2018-12-16T00:18:47.969Z,20.82
2018-12-16T00:21:15.829Z,10.88
2018-12-16T00:23:43.740Z,21.68
2018-12-16T00:26:12.173Z,21.73
2018-12-16T00:28:39.859Z,11.20
2018-12-16T00:31:08.602Z,19.80
2018-12-16T00:33:36.643Z,15.25
2018-12-16T00:36:04.525Z,14.25
2018-12-16T00:38:33.082Z,14.60
2018-12-16T00:41:01.144Z,13.65
2018-12-16T00:43:29.554Z,12.43
2018-12-16T00:45:57.684Z,23.05
2018-12-16T00:48:25.350Z,20.02
2018-12-16T00:50:53.578Z,17.48
2018-12-16T00:53:22.018Z,19.95
2018-12-16T00:55:49.627Z,24.25
2018-12-16T00:58:18.075Z,20.72
2018-12-16T01:00:46.004Z,24.85
2018-12-16T01:03:13.979Z,22.58
2018-12-16T01:05:42.258Z,19.67
2018-12-16T01:08:10.209Z,17.95
2018-12-16T01:10:38.506Z,24.80
2018-12-16T01:13:06.306Z,22.60
2018-12-16T01:15:34.825Z,27.32
2018-12-16T01:18:02.612Z,10.82
2018-12-16T01:20:30.290Z,24.05
2018-12-16T01:22:57.899Z,12.05
2018-12-16T01:25:25.727Z,12.58
2018-12-16T01:27:53.641Z,24.77
2018-12-16T01:30:21.483Z,26.17
2018-12-16T01:32:49.323Z,12.85
2018-12-16T01:35:16.971Z,21.87
2018-12-16T01:37:44.559Z,27.40
2018-12-16T01:40:12.556Z,26.85
2018-12-16T01:42:40.385Z,29.60
2018-12-16T01:45:08.834Z,27.52
2018-12-16T01:47:36.431Z,24.32
2018-12-16T01:50:04.855Z,23.38
2018-12-16T01:52:32.767Z,18.05
2018-12-16T01:55:00.782Z,26.55
2018-12-16T01:57:28.520Z,27.85
2018-12-16T01:59:56.281Z,14.78
2018-12-16T02:02:24.180Z,25.95
2018-12-16T02:04:51.759Z,24.85
2018-12-16T02:07:19.553Z,30.25
2018-12-16T02:09:47.426Z,26.37
2018-12-16T02:12:16.550Z,20.80
2018-12-16T02:14:44.933Z,25.37
2018-12-16T02:17:12.786Z,18.55
2018-12-16T02:19:40.518Z,18.55
2018-12-16T02:22:08.531Z,24.35
2018-12-16T02:24:36.235Z,23.12
2018-12-16T02:27:04.382Z,17.25
2018-12-16T02:29:32.062Z,24.05
2018-12-16T02:31:59.798Z,16.65
2018-12-16T02:34:27.710Z,20.17
2018-12-16T02:36:55.375Z,17.23
2018-12-16T02:39:23.111Z,23.73
2018-12-16T02:41:51.403Z,19.32
2018-12-16T02:44:19.354Z,19.92
2018-12-16T02:46:46.939Z,19.65
2018-12-16T02:49:14.567Z,20.40
2018-12-16T02:51:42.200Z,19.07
2018-12-16T02:54:10.061Z,32.13
2018-12-16T02:56:37.828Z,26.90
2018-12-16T02:59:05.916Z,19.27
2018-12-16T03:01:33.473Z,19.95
2018-12-16T03:04:01.225Z,23.05
2018-12-16T03:06:29.106Z,23.32
2018-12-16T03:08:57.636Z,23.35
2018-12-16T03:11:25.275Z,18.27
2018-12-16T03:13:53.179Z,18.35
2018-12-16T03:16:20.971Z,19.50
2018-12-16T03:18:48.695Z,24.37
2018-12-16T03:21:16.975Z,18.85
2018-12-16T03:23:44.876Z,17.42
2018-12-16T03:26:12.749Z,14.50
2018-12-16T03:28:40.898Z,20.97
2018-12-16T03:31:08.508Z,20.80
2018-12-16T03:33:36.838Z,20.62
2018-12-16T03:36:04.902Z,24.92
2018-12-16T03:38:32.660Z,27.37
2018-12-16T03:41:00.656Z,24.12
2018-12-16T03:43:28.454Z,16.17
2018-12-16T03:45:56.085Z,21.75
2018-12-16T03:48:23.707Z,6.05
2018-12-16T03:50:51.515Z,22.70
2018-12-16T03:53:20.130Z,17.80
2018-12-16T03:55:48.176Z,17.45
2018-12-16T03:58:16.015Z,17.30
2018-12-16T04:00:43.740Z,21.48
2018-12-16T04:03:11.497Z,28.62
2018-12-16T04:05:39.380Z,25.50
2018-12-16T04:08:07.221Z,19.35
2018-12-16T04:10:35.977Z,13.18
2018-12-16T04:13:03.711Z,28.10
2018-12-16T04:15:31.575Z,30.27
2018-12-16T04:17:59.302Z,26.77
2018-12-16T04:20:27.333Z,28.65
2018-12-16T04:22:55.163Z,15.30
2018-12-16T04:25:22.940Z,21.60
2018-12-16T04:27:51.589Z,19.52
2018-12-16T04:30:20.599Z,14.35
2018-12-16T04:32:48.535Z,21.73
2018-12-16T04:35:16.253Z,19.20
2018-12-16T04:37:43.824Z,31.48
2018-12-16T04:40:12.477Z,31.10
2018-12-16T04:42:40.991Z,28.50
2018-12-16T04:45:08.923Z,24.90
2018-12-16T04:47:36.753Z,16.00
2018-12-16T04:50:05.251Z,31.48
2018-12-16T04:52:32.816Z,31.93
2018-12-16T04:55:00.766Z,31.00
2018-12-16T04:57:28.727Z,20.20
2018-12-16T04:59:56.644Z,7.33
2018-12-16T05:02:24.915Z,23.27
2018-12-16T05:04:52.605Z,30.27
2018-12-16T05:07:21.431Z,27.67
2018-12-16T05:09:50.626Z,28.98
2018-12-16T05:12:18.231Z,26.02
2018-12-16T05:14:46.264Z,33.88
2018-12-16T05:17:15.370Z,27.60
2018-12-16T05:19:43.054Z,32.23
2018-12-16T05:22:10.649Z,30.45
2018-12-16T05:24:38.887Z,19.75
2018-12-16T05:27:07.853Z,14.05
2018-12-16T05:29:35.599Z,32.75
2018-12-16T05:32:03.239Z,28.00
2018-12-16T05:34:30.792Z,12.00
2018-12-16T05:36:58.825Z,22.62
2018-12-16T05:39:27.097Z,25.72
2018-12-16T05:41:55.420Z,21.05
2018-12-16T05:44:23.306Z,25.40
2018-12-16T05:46:51.650Z,33.42
2018-12-16T05:49:25.951Z,33.30
2018-12-16T05:51:54.041Z,31.15
2018-12-16T05:54:21.888Z,34.13
2018-12-16T05:56:49.660Z,34.90
2018-12-16T05:59:17.277Z,36.68
2018-12-16T06:01:44.943Z,32.38
2018-12-16T06:04:13.007Z,32.08
2018-12-16T06:06:40.774Z,40.85
2018-12-16T06:09:08.647Z,32.55
2018-12-16T06:11:36.270Z,27.85
2018-12-16T06:14:03.976Z,27.50
2018-12-16T06:16:31.958Z,26.75
2018-12-16T06:18:59.791Z,31.35
2018-12-16T06:21:27.451Z,29.45
2018-12-16T06:23:55.684Z,28.90
2018-12-16T06:26:23.759Z,28.73
2018-12-16T06:28:51.672Z,26.97
2018-12-16T06:31:19.288Z,30.77
2018-12-16T06:33:48.300Z,24.95
2018-12-16T06:36:15.913Z,28.07
2018-12-16T06:38:43.652Z,25.62
2018-12-16T06:41:11.574Z,32.65
2018-12-16T06:43:40.646Z,32.38
2018-12-16T06:46:08.742Z,30.68
2018-12-16T06:48:36.568Z,31.07
2018-12-16T06:51:04.265Z,30.45
2018-12-16T06:53:32.008Z,33.18
2018-12-16T06:56:06.515Z,27.35
2018-12-16T06:58:30.253Z,30.72
2018-12-16T07:00:58.234Z,26.07
2018-12-16T07:03:26.254Z,26.70
2018-12-16T07:05:54.143Z,11.60
2018-12-16T07:08:21.838Z,28.73
2018-12-16T07:10:49.505Z,32.85
2018-12-16T07:13:17.725Z,25.10
2018-12-16T07:15:45.597Z,32.93
2018-12-16T07:18:14.142Z,31.82
2018-12-16T07:20:41.904Z,24.92
2018-12-16T07:23:09.865Z,29.45
2018-12-16T07:25:38.221Z,33.40
2018-12-16T07:28:05.856Z,21.57
2018-12-16T07:30:33.829Z,27.75
2018-12-16T07:33:01.858Z,29.05
2018-12-16T07:35:29.844Z,30.85
2018-12-16T07:37:58.540Z,31.12
2018-12-16T07:40:33.095Z,29.40
2018-12-16T07:43:00.974Z,31.50
2018-12-16T07:45:29.015Z,29.80
2018-12-16T07:47:56.725Z,28.90
2018-12-16T07:50:24.701Z,32.67
2018-12-16T07:52:53.773Z,30.75
2018-12-16T07:55:21.767Z,30.55
2018-12-16T07:57:49.553Z,17.05
2018-12-16T08:00:17.607Z,23.92
2018-12-16T08:02:45.444Z,28.35
2018-12-16T08:05:13.290Z,34.13
2018-12-16T08:07:42.118Z,26.60
2018-12-16T08:10:10.098Z,25.08
2018-12-16T08:12:37.801Z,28.45
2018-12-16T08:15:07.082Z,29.87
2018-12-16T08:17:34.875Z,37.03
2018-12-16T08:20:03.344Z,53.50
2018-12-16T08:22:32.472Z,46.58
2018-12-16T08:25:00.157Z,36.45
2018-12-16T08:27:27.866Z,33.00
2018-12-16T08:29:55.735Z,36.05
2018-12-16T08:32:23.430Z,34.85
2018-12-16T08:34:51.262Z,32.83
2018-12-16T08:37:19.284Z,31.33
2018-12-16T08:39:47.149Z,30.30
2018-12-16T08:42:15.116Z,34.83
2018-12-16T08:44:44.016Z,36.33
2018-12-16T08:47:13.027Z,32.83
2018-12-16T08:49:41.332Z,33.92
2018-12-16T08:52:10.130Z,32.42
2018-12-16T08:54:38.038Z,33.28
2018-12-16T08:57:05.701Z,30.85
2018-12-16T08:59:33.583Z,31.52
2018-12-16T09:02:01.434Z,32.95
2018-12-16T09:04:29.022Z,27.45
2018-12-16T09:06:57.053Z,29.90
2018-12-16T09:09:25.493Z,30.32
2018-12-16T09:11:53.794Z,29.80
2018-12-16T09:14:21.408Z,28.50
2018-12-16T09:16:49.382Z,31.17
2018-12-16T09:19:17.755Z,32.38
2018-12-16T09:21:46.095Z,31.93
2018-12-16T09:24:14.200Z,30.70
2018-12-16T09:26:41.961Z,37.88
2018-12-16T09:29:09.693Z,26.45
2018-12-16T09:31:37.466Z,34.03
2018-12-16T09:34:05.258Z,34.58
2018-12-16T09:36:33.399Z,29.30
2018-12-16T09:39:01.421Z,32.35
2018-12-16T09:41:29.328Z,35.73
2018-12-16T09:43:58.232Z,28.62
2018-12-16T09:46:26.188Z,28.67
2018-12-16T09:48:54.238Z,29.45
2018-12-16T09:51:22.862Z,29.25
2018-12-16T09:53:50.711Z,27.10
2018-12-16T09:56:18.851Z,25.35
2018-12-16T09:58:46.904Z,23.40
2018-12-16T10:01:14.877Z,28.87
2018-12-16T10:03:42.892Z,27.22
2018-12-16T10:06:11.639Z,21.70
2018-12-16T10:08:40.096Z,25.17
2018-12-16T10:11:07.913Z,27.22
2018-12-16T10:13:36.547Z,28.25
2018-12-16T10:16:04.588Z,30.92
2018-12-16T10:18:32.536Z,27.22
2018-12-16T10:21:00.323Z,27.02
2018-12-16T10:23:28.247Z,30.92
2018-12-16T10:25:56.003Z,27.27
2018-12-16T10:28:31.193Z,31.52
2018-12-16T10:30:59.479Z,29.23
2018-12-16T10:33:27.431Z,34.88
2018-12-16T10:35:56.683Z,35.17
2018-12-16T10:38:24.711Z,34.50
2018-12-16T10:40:52.644Z,32.83
2018-12-16T10:43:24.779Z,41.55
2018-12-16T10:45:52.701Z,26.90
2018-12-16T10:48:20.766Z,33.48
2018-12-16T10:50:48.720Z,41.55
2018-12-16T10:53:16.380Z,32.78
2018-12-16T10:55:44.559Z,34.30
2018-12-16T10:58:12.209Z,37.38
2018-12-16T11:00:46.296Z,33.33
2018-12-16T11:03:15.271Z,36.73
2018-12-16T11:05:43.628Z,39.83
2018-12-16T11:08:11.563Z,35.80
2018-12-16T11:10:39.789Z,34.00
2018-12-16T11:13:08.258Z,37.42
2018-12-16T11:15:36.388Z,40.23
2018-12-16T11:18:04.479Z,35.33
2018-12-16T11:20:32.345Z,42.17
2018-12-16T11:23:00.273Z,44.90
2018-12-16T11:25:28.490Z,43.28
2018-12-16T11:27:56.746Z,41.65
2018-12-16T11:30:24.585Z,43.15
2018-12-16T11:32:52.323Z,40.30
2018-12-16T11:35:20.429Z,40.80
2018-12-16T11:37:48.351Z,38.28
2018-12-16T11:40:16.506Z,41.60
2018-12-16T11:42:45.424Z,41.60
2018-12-16T12:34:17.866Z,37.35
2018-12-16T12:36:45.581Z,60.65
2018-12-16T12:59:34.750Z,43.63
2018-12-16T13:02:03.721Z,51.18
2018-12-16T13:04:32.186Z,50.73
2018-12-16T13:07:00.330Z,44.45
2018-12-16T13:09:27.934Z,41.95
2018-12-16T13:11:57.155Z,46.42
2018-12-16T13:14:25.534Z,45.88
2018-12-16T13:16:53.404Z,39.35
2018-12-16T13:19:22.360Z,52.83
2018-12-16T13:21:51.553Z,45.50
2018-12-16T13:24:20.351Z,48.75
2018-12-16T13:26:49.433Z,56.40
2018-12-16T13:29:17.225Z,48.52
2018-12-16T13:31:45.960Z,47.17
2018-12-16T13:34:14.748Z,48.92
2018-12-16T13:36:42.664Z,45.50
2018-12-16T13:39:10.608Z,44.10
2018-12-16T13:41:38.501Z,42.75
2018-12-16T13:44:06.312Z,39.13
2018-12-16T13:46:35.326Z,39.40
2018-12-16T13:49:03.334Z,49.00
2018-12-16T13:51:31.058Z,46.42
2018-12-16T13:54:00.197Z,48.83
2018-12-16T13:56:28.270Z,47.00
2018-12-16T13:58:56.731Z,44.13
2018-12-16T14:01:24.880Z,38.95
2018-12-16T14:03:53.197Z,37.00
2018-12-16T14:06:21.556Z,35.43
2018-12-16T14:08:49.701Z,42.23
2018-12-16T14:11:18.846Z,43.65
2018-12-16T14:13:48.012Z,42.93
2018-12-16T14:16:16.135Z,45.28
2018-12-16T14:18:44.057Z,34.08
2018-12-16T14:21:12.506Z,37.17
2018-12-16T14:23:40.593Z,43.92
2018-12-16T14:26:08.391Z,40.38
2018-12-16T14:28:37.490Z,41.15
2018-12-16T14:31:05.335Z,43.87
2018-12-16T14:33:33.131Z,48.28
2018-12-16T14:36:01.887Z,47.95
2018-12-16T14:38:30.080Z,43.17
2018-12-16T14:40:59.453Z,46.75
2018-12-16T14:43:28.881Z,45.12
2018-12-16T14:45:56.916Z,42.48
2018-12-16T14:48:26.109Z,50.45
2018-12-16T14:50:53.968Z,48.33
2018-12-16T14:53:23.092Z,48.98
2018-12-16T14:55:55.119Z,56.53
2018-12-16T14:58:21.719Z,51.33
2018-12-16T15:00:50.683Z,55.90
2018-12-16T15:03:18.493Z,49.50
2018-12-16T15:05:46.293Z,62.65
2018-12-16T15:08:14.084Z,65.08
2018-12-16T15:10:42.432Z,62.90
2018-12-16T15:13:10.204Z,53.40
2018-12-16T15:15:38.011Z,62.50
2018-12-16T15:18:06.179Z,54.30
2018-12-16T15:20:33.931Z,57.75
2018-12-16T15:23:02.255Z,53.87
2018-12-16T15:25:29.997Z,51.30
2018-12-16T15:27:59.138Z,51.35
2018-12-16T15:30:26.818Z,47.58
2018-12-16T15:32:54.730Z,49.55
2018-12-16T15:35:23.924Z,53.40
2018-12-16T15:37:51.852Z,49.15
2018-12-16T15:40:19.763Z,50.40
2018-12-16T15:42:48.097Z,42.33
2018-12-16T15:45:15.854Z,44.50
2018-12-16T15:47:43.924Z,41.58
2018-12-16T15:50:12.411Z,43.65
2018-12-16T15:52:41.771Z,45.25
2018-12-16T15:55:10.400Z,56.40
2018-12-16T15:57:39.032Z,52.65
2018-12-16T16:00:07.224Z,49.53
2018-12-16T16:02:35.096Z,65.83
2018-12-16T16:05:03.247Z,48.48
2018-12-16T16:07:31.793Z,57.73
2018-12-16T16:09:59.812Z,42.73
2018-12-16T16:12:28.065Z,45.50
2018-12-16T16:14:56.271Z,41.37
2018-12-16T16:17:28.128Z,44.70
2018-12-16T16:19:56.052Z,47.73
2018-12-16T16:22:24.353Z,49.50
2018-12-16T16:24:52.276Z,58.13
2018-12-16T16:27:20.082Z,52.27
2018-12-16T16:29:48.055Z,61.83
2018-12-16T16:32:15.918Z,55.67
2018-12-16T16:34:43.781Z,57.10
2018-12-16T16:37:12.365Z,55.38
2018-12-16T16:39:40.192Z,61.53
2018-12-16T16:42:08.530Z,56.08
2018-12-16T16:44:36.870Z,57.45
2018-12-16T16:47:04.940Z,46.88
2018-12-16T16:49:32.923Z,61.18
2018-12-16T16:52:01.663Z,56.20
2018-12-16T16:54:29.438Z,57.90
2018-12-16T16:56:57.302Z,62.73
2018-12-16T16:59:26.149Z,56.48
2018-12-16T17:01:54.206Z,63.95
2018-12-16T17:04:22.572Z,56.40
2018-12-16T17:06:50.287Z,61.15
2018-12-16T17:09:18.338Z,53.15
2018-12-16T17:11:46.197Z,58.63
2018-12-16T17:14:14.631Z,59.30
2018-12-16T17:16:42.886Z,66.75
2018-12-16T17:19:11.803Z,69.62
2018-12-16T17:21:40.499Z,67.32
2018-12-16T17:24:09.080Z,66.35
2018-12-16T17:26:36.969Z,66.42
2018-12-16T17:29:05.327Z,64.25
2018-12-16T17:31:33.134Z,64.67
2018-12-16T17:34:00.805Z,56.48
2018-12-16T17:36:28.628Z,54.48
2018-12-16T17:38:56.589Z,64.82
2018-12-16T17:41:24.423Z,53.40
2018-12-16T17:43:52.330Z,63.35
2018-12-16T17:46:20.686Z,65.40
2018-12-16T17:48:49.594Z,75.83
2018-12-16T17:51:17.445Z,54.73
2018-12-16T17:53:45.348Z,54.58
2018-12-16T17:56:13.397Z,49.18
2018-12-16T17:58:41.253Z,43.50
2018-12-16T18:01:09.021Z,46.83
2018-12-16T18:03:37.988Z,42.10
2018-12-16T18:06:06.243Z,43.73
2018-12-16T18:08:34.817Z,38.10
2018-12-16T18:11:02.732Z,39.85
2018-12-16T18:13:31.121Z,46.50
2018-12-16T18:15:59.208Z,36.53
2018-12-16T18:18:27.735Z,43.83
2018-12-16T18:20:55.525Z,42.38
2018-12-16T18:24:42.819Z,37.00
2018-12-16T18:27:10.853Z,38.98
2018-12-16T18:29:39.222Z,39.75
2018-12-16T18:32:07.570Z,45.60
2018-12-16T18:34:35.288Z,53.90
2018-12-16T18:37:03.131Z,34.70
2018-12-16T18:39:31.198Z,35.55
2018-12-16T18:41:59.249Z,36.38
2018-12-16T18:44:26.992Z,32.70
2018-12-16T18:46:56.002Z,29.30
2018-12-16T18:49:23.847Z,24.32
2018-12-16T18:51:52.575Z,26.95
2018-12-16T18:54:20.322Z,29.67
2018-12-16T18:56:51.190Z,28.05
2018-12-16T18:59:18.048Z,33.90
2018-12-16T19:01:46.508Z,31.10
2018-12-16T19:04:14.343Z,31.27
2018-12-16T19:06:42.115Z,34.13
2018-12-16T19:09:11.312Z,32.93
2018-12-16T19:11:39.268Z,35.33
2018-12-16T19:14:08.444Z,33.18
2018-12-16T19:16:36.475Z,34.20
2018-12-16T19:19:04.750Z,31.33
2018-12-16T19:21:32.755Z,31.77
2018-12-16T19:24:01.485Z,30.40
2018-12-16T19:26:29.259Z,31.55
2018-12-16T19:28:57.033Z,32.58
2018-12-16T19:31:25.008Z,28.42
2018-12-16T19:33:52.755Z,24.35
2018-12-16T19:36:20.858Z,25.12
2018-12-16T19:38:48.770Z,26.02
2018-12-16T19:41:16.747Z,23.67
2018-12-16T19:43:45.440Z,23.95
2018-12-16T19:46:13.691Z,24.67
2018-12-16T19:48:42.798Z,26.37
2018-12-16T19:51:11.351Z,23.40
2018-12-16T19:53:39.541Z,24.35
2018-12-16T19:56:07.761Z,24.05
2018-12-16T19:58:36.347Z,25.08
2018-12-16T20:01:04.792Z,20.43
2018-12-16T20:03:33.194Z,24.90
2018-12-16T20:06:06.665Z,32.67
2018-12-16T20:08:34.726Z,59.42
2018-12-16T20:11:03.680Z,36.53
2018-12-16T20:13:32.626Z,35.20
2018-12-16T20:16:01.578Z,26.25
2018-12-16T20:18:29.560Z,29.23
2018-12-16T20:20:58.324Z,36.75
2018-12-16T20:23:26.736Z,34.20
2018-12-16T20:25:54.607Z,35.03
2018-12-16T20:28:22.870Z,28.05
2018-12-16T20:30:51.044Z,27.37
2018-12-16T20:33:20.030Z,28.85
2018-12-16T20:35:48.517Z,32.73
2018-12-16T20:38:17.002Z,34.30
2018-12-16T20:40:44.998Z,30.57
2018-12-16T20:43:14.051Z,32.60
2018-12-16T20:45:41.914Z,35.92
2018-12-16T20:48:10.013Z,34.20
2018-12-16T20:50:38.913Z,36.55
2018-12-16T20:53:07.199Z,29.87
2018-12-16T20:55:35.969Z,31.07
2018-12-16T20:58:04.070Z,27.02
2018-12-16T21:00:33.004Z,40.17
2018-12-16T21:03:08.185Z,31.55
2018-12-16T21:05:36.679Z,49.00
2018-12-16T21:08:05.471Z,39.58
2018-12-16T21:10:33.793Z,29.87
2018-12-16T21:13:08.034Z,32.03
2018-12-16T21:15:41.621Z,30.68
2018-12-16T21:18:14.969Z,29.20
2018-12-16T21:20:42.632Z,45.33
2018-12-16T21:23:10.452Z,33.40
2018-12-16T21:25:38.145Z,34.50
2018-12-16T21:28:06.026Z,33.28
2018-12-16T21:30:34.939Z,28.87
2018-12-16T21:33:03.219Z,30.40
2018-12-16T21:35:31.111Z,28.60
2018-12-16T21:37:59.828Z,26.30
2018-12-16T21:40:28.371Z,25.90
2018-12-16T21:42:56.247Z,18.57
2018-12-16T21:45:24.252Z,26.17
2018-12-16T21:47:52.889Z,24.95
2018-12-16T21:50:20.576Z,25.23
2018-12-16T21:52:48.929Z,25.80
2018-12-16T21:55:17.730Z,25.92
2018-12-16T21:57:45.531Z,25.60
2018-12-16T22:00:13.276Z,23.73
2018-12-16T22:02:42.054Z,17.23
2018-12-16T22:05:11.387Z,22.27
2018-12-16T22:07:40.492Z,20.72
2018-12-16T22:10:08.828Z,26.25
2018-12-16T22:12:36.526Z,35.75
2018-12-16T22:15:05.119Z,31.40
2018-12-16T22:17:33.295Z,25.52
2018-12-16T22:20:00.935Z,23.98
2018-12-16T22:22:29.901Z,25.85
2018-12-16T22:24:57.692Z,30.40
2018-12-16T22:27:26.201Z,22.67
2018-12-16T22:29:54.347Z,25.88
2018-12-16T22:32:22.048Z,22.62
2018-12-16T22:34:49.973Z,23.65
2018-12-16T22:37:18.324Z,25.30
2018-12-16T22:39:46.554Z,21.50
2018-12-16T22:42:14.463Z,24.07
2018-12-16T22:44:42.290Z,23.00
2018-12-16T22:47:10.200Z,22.70
2018-12-16T22:49:37.911Z,24.80
2018-12-16T22:52:05.839Z,31.15
2018-12-16T22:54:33.821Z,25.60
2018-12-16T22:57:01.542Z,26.15
2018-12-16T22:59:29.566Z,34.05
2018-12-16T23:01:57.930Z,25.72
2018-12-16T23:04:25.600Z,25.25
2018-12-16T23:06:53.313Z,22.02
2018-12-16T23:09:21.563Z,23.87
2018-12-16T23:11:49.247Z,23.10
2018-12-16T23:14:17.215Z,19.48
2018-12-16T23:16:45.476Z,17.95
2018-12-16T23:19:13.281Z,23.92
2018-12-16T23:21:41.455Z,24.18
2018-12-16T23:24:09.663Z,22.20
2018-12-16T23:26:37.396Z,28.42
2018-12-16T23:29:05.067Z,21.40
2018-12-16T23:31:33.751Z,31.52
2018-12-16T23:34:01.642Z,28.17
2018-12-16T23:36:29.346Z,30.68
2018-12-16T23:38:57.759Z,30.75
2018-12-16T23:41:26.614Z,29.00
2018-12-16T23:43:54.298Z,36.63
2018-12-16T23:46:21.981Z,28.30
2018-12-16T23:48:50.427Z,26.52
2018-12-16T23:51:18.271Z,34.63
2018-12-16T23:53:46.366Z,30.30
2018-12-16T23:56:15.193Z,27.32
2018-12-16T23:58:42.898Z,21.12
